sensor_id;sensor_type;location;lat;lon;timestamp;pressure;altitude;pressure_sealevel;temperature;humidity
57048;BME280;42934;54.294;18.598;2023-02-28T00:02:02;102407.56;;;-3.16;73.14
57048;BME280;42934;54.294;18.598;2023-02-28T00:04:31;102411.97;;;-3.14;73.07
57048;BME280;42934;54.294;18.598;2023-02-28T00:07:02;102418.00;;;-3.13;74.04
57048;BME280;42934;54.294;18.598;2023-02-28T00:09:30;102404.13;;;-3.17;73.66
57048;BME280;42934;54.294;18.598;2023-02-28T00:11:59;102404.13;;;-3.17;73.85
57048;BME280;42934;54.294;18.598;2023-02-28T00:14:31;102405.41;;;-3.09;73.31
57048;BME280;42934;54.294;18.598;2023-02-28T00:17:00;102411.31;;;-3.10;73.08
57048;BME280;42934;54.294;18.598;2023-02-28T00:19:29;102410.28;;;-3.13;73.85
57048;BME280;42934;54.294;18.598;2023-02-28T00:21:58;102403.41;;;-3.14;73.98
57048;BME280;42934;54.294;18.598;2023-02-28T00:24:28;102418.41;;;-3.22;74.52
57048;BME280;42934;54.294;18.598;2023-02-28T00:26:57;102416.50;;;-3.26;74.58
57048;BME280;42934;54.294;18.598;2023-02-28T00:29:26;102414.09;;;-3.23;74.26
57048;BME280;42934;54.294;18.598;2023-02-28T00:31:55;102426.13;;;-3.22;74.36
57048;BME280;42934;54.294;18.598;2023-02-28T00:34:24;102422.41;;;-3.27;74.48
57048;BME280;42934;54.294;18.598;2023-02-28T00:36:54;102429.41;;;-3.41;74.38
57048;BME280;42934;54.294;18.598;2023-02-28T00:39:23;102433.00;;;-3.54;75.36
57048;BME280;42934;54.294;18.598;2023-02-28T00:41:53;102422.81;;;-3.52;74.93
57048;BME280;42934;54.294;18.598;2023-02-28T00:44:22;102432.69;;;-3.44;75.43
57048;BME280;42934;54.294;18.598;2023-02-28T00:46:51;102435.66;;;-3.36;74.84
57048;BME280;42934;54.294;18.598;2023-02-28T00:49:25;102434.38;;;-3.28;74.74
57048;BME280;42934;54.294;18.598;2023-02-28T00:51:55;102435.81;;;-3.33;75.33
57048;BME280;42934;54.294;18.598;2023-02-28T00:54:26;102433.56;;;-3.27;75.61
57048;BME280;42934;54.294;18.598;2023-02-28T00:56:56;102434.84;;;-3.18;74.66
57048;BME280;42934;54.294;18.598;2023-02-28T00:59:25;102440.16;;;-3.15;74.83
57048;BME280;42934;54.294;18.598;2023-02-28T01:01:54;102436.66;;;-3.17;74.93
57048;BME280;42934;54.294;18.598;2023-02-28T01:04:23;102441.84;;;-3.16;75.04
57048;BME280;42934;54.294;18.598;2023-02-28T01:06:53;102440.72;;;-3.21;75.29
57048;BME280;42934;54.294;18.598;2023-02-28T01:09:21;102437.59;;;-3.15;74.80
57048;BME280;42934;54.294;18.598;2023-02-28T01:11:51;102431.41;;;-3.19;75.69
57048;BME280;42934;54.294;18.598;2023-02-28T01:14:21;102434.13;;;-3.16;75.07
57048;BME280;42934;54.294;18.598;2023-02-28T01:16:51;102436.66;;;-3.17;75.43
57048;BME280;42934;54.294;18.598;2023-02-28T01:19:20;102435.97;;;-3.13;74.61
57048;BME280;42934;54.294;18.598;2023-02-28T01:21:49;102439.22;;;-3.17;74.23
57048;BME280;42934;54.294;18.598;2023-02-28T01:24:18;102442.81;;;-3.30;73.80
57048;BME280;42934;54.294;18.598;2023-02-28T01:26:47;102433.81;;;-3.55;74.20
57048;BME280;42934;54.294;18.598;2023-02-28T01:29:16;102429.66;;;-3.84;74.67
57048;BME280;42934;54.294;18.598;2023-02-28T01:31:47;102422.47;;;-4.06;75.70
57048;BME280;42934;54.294;18.598;2023-02-28T01:34:16;102415.69;;;-4.05;75.42
57048;BME280;42934;54.294;18.598;2023-02-28T01:36:46;102425.03;;;-4.06;75.41
57048;BME280;42934;54.294;18.598;2023-02-28T01:39:15;102419.72;;;-4.09;74.98
57048;BME280;42934;54.294;18.598;2023-02-28T01:41:45;102415.56;;;-4.07;74.81
57048;BME280;42934;54.294;18.598;2023-02-28T01:47:23;102413.09;;;-4.05;74.85
57048;BME280;42934;54.294;18.598;2023-02-28T01:49:53;102419.91;;;-4.06;74.85
57048;BME280;42934;54.294;18.598;2023-02-28T01:52:23;102431.69;;;-4.09;74.59
57048;BME280;42934;54.294;18.598;2023-02-28T01:54:55;102413.66;;;-4.11;74.42
57048;BME280;42934;54.294;18.598;2023-02-28T01:57:29;102418.97;;;-4.23;75.03
57048;BME280;42934;54.294;18.598;2023-02-28T02:00:08;102415.47;;;-4.40;75.41
57048;BME280;42934;54.294;18.598;2023-02-28T02:02:43;102420.50;;;-4.41;75.92
57048;BME280;42934;54.294;18.598;2023-02-28T02:05:17;102421.03;;;-4.32;75.81
57048;BME280;42934;54.294;18.598;2023-02-28T02:07:48;102413.16;;;-4.35;76.59
57048;BME280;42934;54.294;18.598;2023-02-28T02:10:21;102416.59;;;-4.20;75.43
57048;BME280;42934;54.294;18.598;2023-02-28T02:15:53;102403.19;;;-3.99;74.67
57048;BME280;42934;54.294;18.598;2023-02-28T02:18:32;102409.91;;;-4.01;74.92
57048;BME280;42934;54.294;18.598;2023-02-28T02:24:46;102407.66;;;-3.95;75.02
57048;BME280;42934;54.294;18.598;2023-02-28T02:27:24;102410.56;;;-3.89;74.83
57048;BME280;42934;54.294;18.598;2023-02-28T02:36:14;102414.59;;;-3.78;74.71
57048;BME280;42934;54.294;18.598;2023-02-28T02:38:49;102415.97;;;-3.68;73.94
57048;BME280;42934;54.294;18.598;2023-02-28T02:41:26;102412.69;;;-3.66;74.52
57048;BME280;42934;54.294;18.598;2023-02-28T02:44:01;102418.97;;;-3.60;74.85
57048;BME280;42934;54.294;18.598;2023-02-28T02:46:33;102418.63;;;-3.50;74.17
57048;BME280;42934;54.294;18.598;2023-02-28T02:49:07;102412.16;;;-3.44;74.01
57048;BME280;42934;54.294;18.598;2023-02-28T02:51:41;102406.47;;;-3.38;74.56
57048;BME280;42934;54.294;18.598;2023-02-28T02:54:14;102421.22;;;-3.34;73.83
57048;BME280;42934;54.294;18.598;2023-02-28T02:56:48;102415.44;;;-3.30;73.57
57048;BME280;42934;54.294;18.598;2023-02-28T02:59:21;102425.31;;;-3.21;73.70
57048;BME280;42934;54.294;18.598;2023-02-28T03:01:54;102420.63;;;-3.12;74.10
57048;BME280;42934;54.294;18.598;2023-02-28T03:04:27;102423.59;;;-3.04;73.75
57048;BME280;42934;54.294;18.598;2023-02-28T03:07:00;102420.38;;;-3.00;73.73
57048;BME280;42934;54.294;18.598;2023-02-28T03:09:29;102426.59;;;-2.97;72.95
57048;BME280;42934;54.294;18.598;2023-02-28T03:12:04;102431.06;;;-2.92;73.12
57048;BME280;42934;54.294;18.598;2023-02-28T03:14:50;102434.03;;;-2.85;73.09
57048;BME280;42934;54.294;18.598;2023-02-28T03:17:52;102433.31;;;-2.82;72.88
57048;BME280;42934;54.294;18.598;2023-02-28T03:20:33;102432.66;;;-2.78;72.49
57048;BME280;42934;54.294;18.598;2023-02-28T03:23:13;102436.25;;;-2.75;72.58
57048;BME280;42934;54.294;18.598;2023-02-28T03:25:56;102436.81;;;-2.80;72.36
57048;BME280;42934;54.294;18.598;2023-02-28T03:28:33;102442.78;;;-2.81;72.52
57048;BME280;42934;54.294;18.598;2023-02-28T03:31:12;102435.13;;;-2.80;72.94
57048;BME280;42934;54.294;18.598;2023-02-28T03:33:47;102434.25;;;-2.80;73.12
57048;BME280;42934;54.294;18.598;2023-02-28T03:36:25;102435.38;;;-2.75;73.70
57048;BME280;42934;54.294;18.598;2023-02-28T03:38:59;102437.13;;;-2.74;73.00
57048;BME280;42934;54.294;18.598;2023-02-28T03:41:35;102439.84;;;-2.71;73.23
57048;BME280;42934;54.294;18.598;2023-02-28T03:44:10;102428.84;;;-2.68;72.93
57048;BME280;42934;54.294;18.598;2023-02-28T03:46:46;102434.13;;;-2.65;73.08
57048;BME280;42934;54.294;18.598;2023-02-28T03:49:20;102433.50;;;-2.61;73.69
57048;BME280;42934;54.294;18.598;2023-02-28T03:51:52;102435.91;;;-2.64;72.90
57048;BME280;42934;54.294;18.598;2023-02-28T03:54:29;102434.06;;;-2.67;72.75
57048;BME280;42934;54.294;18.598;2023-02-28T03:57:04;102428.47;;;-2.76;72.71
57048;BME280;42934;54.294;18.598;2023-02-28T03:59:39;102428.22;;;-2.81;72.81
57048;BME280;42934;54.294;18.598;2023-02-28T04:02:11;102426.47;;;-2.82;73.25
57048;BME280;42934;54.294;18.598;2023-02-28T04:04:40;102435.94;;;-2.81;72.82
57048;BME280;42934;54.294;18.598;2023-02-28T04:07:12;102430.13;;;-2.77;73.41
57048;BME280;42934;54.294;18.598;2023-02-28T04:09:43;102426.63;;;-2.79;72.93
57048;BME280;42934;54.294;18.598;2023-02-28T04:12:12;102432.50;;;-2.81;73.22
57048;BME280;42934;54.294;18.598;2023-02-28T04:14:42;102428.06;;;-2.84;73.21
57048;BME280;42934;54.294;18.598;2023-02-28T04:17:11;102434.66;;;-2.89;72.63
57048;BME280;42934;54.294;18.598;2023-02-28T04:19:40;102433.56;;;-2.94;73.11
57048;BME280;42934;54.294;18.598;2023-02-28T04:22:09;102435.31;;;-2.93;73.38
57048;BME280;42934;54.294;18.598;2023-02-28T04:24:39;102432.75;;;-2.93;73.40
57048;BME280;42934;54.294;18.598;2023-02-28T04:27:10;102431.94;;;-2.92;73.57
57048;BME280;42934;54.294;18.598;2023-02-28T04:29:39;102438.06;;;-2.90;73.70
57048;BME280;42934;54.294;18.598;2023-02-28T04:32:12;102438.06;;;-2.90;73.68
57048;BME280;42934;54.294;18.598;2023-02-28T04:34:41;102439.19;;;-2.85;73.65
57048;BME280;42934;54.294;18.598;2023-02-28T04:37:10;102433.31;;;-2.82;73.16
57048;BME280;42934;54.294;18.598;2023-02-28T04:39:42;102427.09;;;-2.86;73.22
57048;BME280;42934;54.294;18.598;2023-02-28T04:42:13;102424.22;;;-2.76;73.77
57048;BME280;42934;54.294;18.598;2023-02-28T04:44:42;102417.81;;;-2.66;73.43
57048;BME280;42934;54.294;18.598;2023-02-28T04:47:11;102419.97;;;-2.57;73.40
57048;BME280;42934;54.294;18.598;2023-02-28T04:49:40;102420.84;;;-2.57;72.92
57048;BME280;42934;54.294;18.598;2023-02-28T04:52:10;102414.00;;;-2.56;72.77
57048;BME280;42934;54.294;18.598;2023-02-28T04:54:41;102420.28;;;-2.51;72.94
57048;BME280;42934;54.294;18.598;2023-02-28T04:57:10;102415.94;;;-2.52;73.09
57048;BME280;42934;54.294;18.598;2023-02-28T04:59:40;102410.22;;;-2.46;72.48
57048;BME280;42934;54.294;18.598;2023-02-28T05:02:09;102413.69;;;-2.46;72.26
57048;BME280;42934;54.294;18.598;2023-02-28T05:04:38;102421.38;;;-2.46;72.40
57048;BME280;42934;54.294;18.598;2023-02-28T05:07:07;102418.56;;;-2.51;72.10
57048;BME280;42934;54.294;18.598;2023-02-28T05:09:37;102430.81;;;-2.46;71.48
57048;BME280;42934;54.294;18.598;2023-02-28T05:12:07;102431.69;;;-2.46;72.07
57048;BME280;42934;54.294;18.598;2023-02-28T05:14:37;102430.56;;;-2.51;71.55
57048;BME280;42934;54.294;18.598;2023-02-28T05:17:09;102427.94;;;-2.53;72.06
57048;BME280;42934;54.294;18.598;2023-02-28T05:19:39;102420.28;;;-2.51;72.22
57048;BME280;42934;54.294;18.598;2023-02-28T05:22:14;102421.44;;;-2.44;72.45
57048;BME280;42934;54.294;18.598;2023-02-28T05:24:44;102422.56;;;-2.39;72.70
57048;BME280;42934;54.294;18.598;2023-02-28T05:27:13;102421.16;;;-2.33;72.15
57048;BME280;42934;54.294;18.598;2023-02-28T05:29:43;102428.09;;;-2.32;71.99
57048;BME280;42934;54.294;18.598;2023-02-28T05:32:14;102432.22;;;-2.35;71.75
57048;BME280;42934;54.294;18.598;2023-02-28T05:34:43;102435.84;;;-2.48;71.56
57048;BME280;42934;54.294;18.598;2023-02-28T05:37:15;102427.94;;;-2.53;72.44
57048;BME280;42934;54.294;18.598;2023-02-28T05:39:45;102426.41;;;-2.65;72.51
57048;BME280;42934;54.294;18.598;2023-02-28T05:42:14;102417.97;;;-2.63;72.81
57048;BME280;42934;54.294;18.598;2023-02-28T05:44:43;102412.78;;;-2.64;73.08
57048;BME280;42934;54.294;18.598;2023-02-28T05:47:13;102417.41;;;-2.57;73.26
57048;BME280;42934;54.294;18.598;2023-02-28T05:49:43;102424.25;;;-2.58;73.06
57048;BME280;42934;54.294;18.598;2023-02-28T05:52:12;102413.88;;;-2.59;73.18
57048;BME280;42934;54.294;18.598;2023-02-28T05:54:41;102420.28;;;-2.51;73.41
57048;BME280;42934;54.294;18.598;2023-02-28T05:57:10;102423.28;;;-2.42;73.16
57048;BME280;42934;54.294;18.598;2023-02-28T05:59:51;102421.09;;;-2.34;72.94
57048;BME280;42934;54.294;18.598;2023-02-28T06:02:21;102421.41;;;-2.28;72.58
57048;BME280;42934;54.294;18.598;2023-02-28T06:04:51;102416.97;;;-2.31;72.30
57048;BME280;42934;54.294;18.598;2023-02-28T06:07:19;102416.94;;;-2.32;72.21
57048;BME280;42934;54.294;18.598;2023-02-28T06:09:50;102414.69;;;-2.42;72.24
57048;BME280;42934;54.294;18.598;2023-02-28T06:12:19;102416.97;;;-2.48;72.19
57048;BME280;42934;54.294;18.598;2023-02-28T06:14:48;102416.88;;;-2.50;72.74
57048;BME280;42934;54.294;18.598;2023-02-28T06:17:17;102414.91;;;-2.56;73.07
57048;BME280;42934;54.294;18.598;2023-02-28T06:19:47;102418.53;;;-2.52;73.50
57048;BME280;42934;54.294;18.598;2023-02-28T06:22:16;102415.81;;;-2.55;73.45
57048;BME280;42934;54.294;18.598;2023-02-28T06:24:46;102418.53;;;-2.52;73.63
57048;BME280;42934;54.294;18.598;2023-02-28T06:27:15;102418.88;;;-2.44;73.53
57048;BME280;42934;54.294;18.598;2023-02-28T06:29:44;102416.69;;;-2.37;73.42
57048;BME280;42934;54.294;18.598;2023-02-28T06:32:13;102417.66;;;-2.35;73.54
57048;BME280;42934;54.294;18.598;2023-02-28T06:34:42;102416.16;;;-2.30;73.70
57048;BME280;42934;54.294;18.598;2023-02-28T06:37:12;102412.13;;;-2.24;73.49
57048;BME280;42934;54.294;18.598;2023-02-28T06:39:42;102409.84;;;-2.18;73.46
57048;BME280;42934;54.294;18.598;2023-02-28T06:42:11;102411.91;;;-2.11;73.42
57048;BME280;42934;54.294;18.598;2023-02-28T06:44:40;102412.19;;;-2.05;73.37
57048;BME280;42934;54.294;18.598;2023-02-28T06:47:10;102413.44;;;-1.97;73.49
57048;BME280;42934;54.294;18.598;2023-02-28T06:49:40;102419.09;;;-1.86;73.20
57048;BME280;42934;54.294;18.598;2023-02-28T06:52:09;102415.25;;;-1.76;73.19
57048;BME280;42934;54.294;18.598;2023-02-28T06:54:40;102413.69;;;-1.73;73.38
57048;BME280;42934;54.294;18.598;2023-02-28T06:57:08;102414.94;;;-1.65;73.06
57048;BME280;42934;54.294;18.598;2023-02-28T06:59:38;102419.53;;;-1.57;73.16
57048;BME280;42934;54.294;18.598;2023-02-28T07:02:08;102413.06;;;-1.49;72.86
57048;BME280;42934;54.294;18.598;2023-02-28T07:04:38;102419.34;;;-1.43;73.27
57048;BME280;42934;54.294;18.598;2023-02-28T07:07:08;102408.34;;;-1.39;72.97
57048;BME280;42934;54.294;18.598;2023-02-28T07:09:38;102417.44;;;-1.27;72.93
57048;BME280;42934;54.294;18.598;2023-02-28T07:12:07;102417.84;;;-1.18;72.79
57048;BME280;42934;54.294;18.598;2023-02-28T07:14:37;102414.75;;;-1.11;72.83
57048;BME280;42934;54.294;18.598;2023-02-28T07:17:07;102415.88;;;-1.04;72.94
57048;BME280;42934;54.294;18.598;2023-02-28T07:19:36;102417.16;;;-0.95;72.58
57048;BME280;42934;54.294;18.598;2023-02-28T07:22:05;102421.56;;;-0.92;73.09
57048;BME280;42934;54.294;18.598;2023-02-28T07:24:35;102419.44;;;-0.81;72.78
57048;BME280;42934;54.294;18.598;2023-02-28T07:27:05;102417.81;;;-0.79;72.98
57048;BME280;42934;54.294;18.598;2023-02-28T07:29:34;102424.25;;;-0.70;73.09
57048;BME280;42934;54.294;18.598;2023-02-28T07:32:04;102422.41;;;-0.72;73.09
57048;BME280;42934;54.294;18.598;2023-02-28T07:34:33;102418.63;;;-0.59;72.78
57048;BME280;42934;54.294;18.598;2023-02-28T07:37:02;102421.66;;;-0.49;72.82
57048;BME280;42934;54.294;18.598;2023-02-28T07:39:33;102424.56;;;-0.41;73.13
57048;BME280;42934;54.294;18.598;2023-02-28T07:42:06;102423.03;;;-0.36;72.90
57048;BME280;42934;54.294;18.598;2023-02-28T07:44:39;102418.31;;;-0.25;73.02
57048;BME280;42934;54.294;18.598;2023-02-28T07:47:09;102426.50;;;-0.14;72.72
57048;BME280;42934;54.294;18.598;2023-02-28T07:49:39;102423.41;;;-0.06;72.83
57048;BME280;42934;54.294;18.598;2023-02-28T07:52:08;102433.31;;;0.06;72.43
57048;BME280;42934;54.294;18.598;2023-02-28T07:54:39;102429.31;;;0.14;72.06
57048;BME280;42934;54.294;18.598;2023-02-28T07:57:09;102434.78;;;0.22;72.04
57048;BME280;42934;54.294;18.598;2023-02-28T07:59:38;102436.19;;;0.36;71.77
57048;BME280;42934;54.294;18.598;2023-02-28T08:02:08;102432.19;;;0.44;72.44
57048;BME280;42934;54.294;18.598;2023-02-28T08:04:38;102436.84;;;0.53;72.14
57048;BME280;42934;54.294;18.598;2023-02-28T08:07:08;102426.72;;;0.59;72.17
57048;BME280;42934;54.294;18.598;2023-02-28T08:09:37;102429.44;;;0.64;71.75
57048;BME280;42934;54.294;18.598;2023-02-28T08:12:08;102430.44;;;0.67;71.49
57048;BME280;42934;54.294;18.598;2023-02-28T08:14:38;102424.72;;;0.76;71.82
57048;BME280;42934;54.294;18.598;2023-02-28T08:17:08;102415.41;;;0.80;71.54
57048;BME280;42934;54.294;18.598;2023-02-28T08:19:38;102416.50;;;0.86;71.82
57048;BME280;42934;54.294;18.598;2023-02-28T08:22:07;102411.47;;;0.91;71.33
57048;BME280;42934;54.294;18.598;2023-02-28T08:24:36;102408.97;;;0.94;71.04
57048;BME280;42934;54.294;18.598;2023-02-28T08:27:05;102397.19;;;1.02;71.69
57048;BME280;42934;54.294;18.598;2023-02-28T08:29:37;102400.94;;;1.10;71.69
57048;BME280;42934;54.294;18.598;2023-02-28T08:32:06;102399.59;;;1.22;71.71
57048;BME280;42934;54.294;18.598;2023-02-28T08:34:55;102392.97;;;1.30;71.49
57048;BME280;42934;54.294;18.598;2023-02-28T08:37:24;102394.06;;;1.36;70.60
57048;BME280;42934;54.294;18.598;2023-02-28T08:39:54;102387.22;;;1.39;70.95
57048;BME280;42934;54.294;18.598;2023-02-28T08:42:23;102382.28;;;1.46;70.67
57048;BME280;42934;54.294;18.598;2023-02-28T08:44:54;102385.22;;;1.57;70.59
57048;BME280;42934;54.294;18.598;2023-02-28T08:47:24;102385.59;;;1.68;70.95
57048;BME280;42934;54.294;18.598;2023-02-28T08:49:53;102387.53;;;1.75;70.23
57048;BME280;42934;54.294;18.598;2023-02-28T08:52:22;102388.69;;;1.85;69.78
57048;BME280;42934;54.294;18.598;2023-02-28T08:54:51;102389.91;;;1.96;70.04
57048;BME280;42934;54.294;18.598;2023-02-28T08:57:20;102385.75;;;2.01;70.06
57048;BME280;42934;54.294;18.598;2023-02-28T08:59:49;102391.13;;;2.09;69.43
57048;BME280;42934;54.294;18.598;2023-02-28T09:02:20;102393.09;;;2.16;69.14
57048;BME280;42934;54.294;18.598;2023-02-28T09:04:49;102399.41;;;2.24;69.32
57048;BME280;42934;54.294;18.598;2023-02-28T09:07:18;102398.72;;;2.31;69.25
57048;BME280;42934;54.294;18.598;2023-02-28T09:09:47;102391.19;;;2.39;68.84
57048;BME280;42934;54.294;18.598;2023-02-28T09:12:23;102393.09;;;2.44;67.69
57048;BME280;42934;54.294;18.598;2023-02-28T09:14:53;102395.88;;;2.52;68.63
57048;BME280;42934;54.294;18.598;2023-02-28T09:17:23;102401.41;;;2.64;67.91
57048;BME280;42934;54.294;18.598;2023-02-28T09:19:58;102400.78;;;2.73;67.67
57048;BME280;42934;54.294;18.598;2023-02-28T09:22:27;102394.94;;;2.80;67.22
57048;BME280;42934;54.294;18.598;2023-02-28T09:24:56;102405.59;;;2.91;66.97
57048;BME280;42934;54.294;18.598;2023-02-28T09:27:25;102399.75;;;3.00;67.05
57048;BME280;42934;54.294;18.598;2023-02-28T09:29:54;102404.47;;;3.13;67.05
57048;BME280;42934;54.294;18.598;2023-02-28T09:32:24;102398.63;;;3.22;66.94
57048;BME280;42934;54.294;18.598;2023-02-28T09:34:54;102411.72;;;3.26;65.52
57048;BME280;42934;54.294;18.598;2023-02-28T09:37:22;102409.13;;;3.26;63.92
57048;BME280;42934;54.294;18.598;2023-02-28T09:39:52;102408.41;;;3.32;63.48
57048;BME280;42934;54.294;18.598;2023-02-28T09:42:25;102405.06;;;3.37;64.38
57048;BME280;42934;54.294;18.598;2023-02-28T09:44:56;102407.81;;;3.44;64.41
57048;BME280;42934;54.294;18.598;2023-02-28T09:47:31;102411.66;;;3.58;65.26
57048;BME280;42934;54.294;18.598;2023-02-28T09:50:11;102415.38;;;3.69;64.84
57048;BME280;42934;54.294;18.598;2023-02-28T09:52:46;102413.00;;;3.78;64.34
57048;BME280;42934;54.294;18.598;2023-02-28T09:55:22;102407.94;;;3.84;63.49
57048;BME280;42934;54.294;18.598;2023-02-28T09:57:55;102414.16;;;3.91;63.60
57048;BME280;42934;54.294;18.598;2023-02-28T10:00:32;102405.75;;;4.01;64.08
57048;BME280;42934;54.294;18.598;2023-02-28T10:03:24;102402.47;;;4.10;63.87
57048;BME280;42934;54.294;18.598;2023-02-28T10:05:58;102396.59;;;4.19;63.74
57048;BME280;42934;54.294;18.598;2023-02-28T10:08:36;102399.25;;;4.22;61.92
57048;BME280;42934;54.294;18.598;2023-02-28T10:11:12;102398.59;;;4.32;62.78
57048;BME280;42934;54.294;18.598;2023-02-28T10:13:51;102390.78;;;4.30;61.94
57048;BME280;42934;54.294;18.598;2023-02-28T10:16:25;102393.41;;;4.32;61.27
57048;BME280;42934;54.294;18.598;2023-02-28T10:19:03;102390.97;;;4.40;62.31
57048;BME280;42934;54.294;18.598;2023-02-28T10:21:37;102393.69;;;4.44;60.48
57048;BME280;42934;54.294;18.598;2023-02-28T10:24:19;102390.41;;;4.54;61.30
57048;BME280;42934;54.294;18.598;2023-02-28T10:26:49;102390.47;;;4.58;60.80
57048;BME280;42934;54.294;18.598;2023-02-28T10:29:20;102385.13;;;4.51;59.68
57048;BME280;42934;54.294;18.598;2023-02-28T10:31:49;102384.31;;;4.54;59.42
57048;BME280;42934;54.294;18.598;2023-02-28T10:34:20;102390.63;;;4.67;59.91
57048;BME280;42934;54.294;18.598;2023-02-28T10:36:50;102380.34;;;4.73;60.36
57048;BME280;42934;54.294;18.598;2023-02-28T10:39:37;102379.59;;;4.78;59.21
57048;BME280;42934;54.294;18.598;2023-02-28T10:42:20;102377.25;;;4.92;60.42
57048;BME280;42934;54.294;18.598;2023-02-28T10:45:07;102373.94;;;5.03;59.39
57048;BME280;42934;54.294;18.598;2023-02-28T10:47:49;102369.81;;;5.12;59.19
57048;BME280;42934;54.294;18.598;2023-02-28T10:50:31;102369.16;;;5.26;59.07
57048;BME280;42934;54.294;18.598;2023-02-28T10:53:21;102365.81;;;5.34;58.64
57048;BME280;42934;54.294;18.598;2023-02-28T10:55:58;102367.69;;;5.43;57.79
57048;BME280;42934;54.294;18.598;2023-02-28T10:58:31;102377.38;;;5.50;57.55
57048;BME280;42934;54.294;18.598;2023-02-28T11:01:01;102367.06;;;5.56;58.06
57048;BME280;42934;54.294;18.598;2023-02-28T11:03:32;102376.88;;;5.74;57.68
57048;BME280;42934;54.294;18.598;2023-02-28T11:06:08;102367.53;;;5.90;56.90
57048;BME280;42934;54.294;18.598;2023-02-28T11:08:46;102362.59;;;6.07;55.34
57048;BME280;42934;54.294;18.598;2023-02-28T11:11:16;102356.75;;;6.25;54.69
57048;BME280;42934;54.294;18.598;2023-02-28T11:13:47;102354.34;;;6.43;53.17
57048;BME280;42934;54.294;18.598;2023-02-28T11:16:18;102351.44;;;6.96;55.07
57048;BME280;42934;54.294;18.598;2023-02-28T11:18:50;102352.97;;;7.81;54.51
57048;BME280;42934;54.294;18.598;2023-02-28T11:21:24;102342.06;;;8.65;51.25
57048;BME280;42934;54.294;18.598;2023-02-28T11:24:02;102336.78;;;9.86;48.78
57048;BME280;42934;54.294;18.598;2023-02-28T11:26:37;102340.75;;;10.79;47.42
57048;BME280;42934;54.294;18.598;2023-02-28T11:29:19;102339.06;;;10.72;44.85
57048;BME280;42934;54.294;18.598;2023-02-28T11:32:13;102338.50;;;9.96;45.66
57048;BME280;42934;54.294;18.598;2023-02-28T11:34:45;102342.97;;;9.58;46.10
57048;BME280;42934;54.294;18.598;2023-02-28T11:37:18;102340.34;;;9.58;47.69
57048;BME280;42934;54.294;18.598;2023-02-28T11:39:47;102330.75;;;9.53;46.63
57048;BME280;42934;54.294;18.598;2023-02-28T11:42:42;102336.84;;;9.54;46.27
57048;BME280;42934;54.294;18.598;2023-02-28T11:45:27;102329.84;;;9.58;46.80
57048;BME280;42934;54.294;18.598;2023-02-28T11:48:07;102324.56;;;9.76;47.15
57048;BME280;42934;54.294;18.598;2023-02-28T11:50:47;102322.81;;;9.73;43.64
57048;BME280;42934;54.294;18.598;2023-02-28T11:53:29;102314.97;;;9.72;43.15
57048;BME280;42934;54.294;18.598;2023-02-28T11:56:08;102314.91;;;9.87;45.34
57048;BME280;42934;54.294;18.598;2023-02-28T11:58:47;102309.59;;;10.06;44.60
57048;BME280;42934;54.294;18.598;2023-02-28T12:01:30;102301.72;;;10.10;44.13
57048;BME280;42934;54.294;18.598;2023-02-28T12:04:11;102297.41;;;10.00;44.17
57048;BME280;42934;54.294;18.598;2023-02-28T12:06:47;102281.59;;;10.08;44.99
57048;BME280;42934;54.294;18.598;2023-02-28T12:09:38;102278.91;;;10.24;44.27
57048;BME280;42934;54.294;18.598;2023-02-28T12:12:17;102279.81;;;10.14;43.93
57048;BME280;42934;54.294;18.598;2023-02-28T12:15:13;102277.28;;;9.96;42.49
57048;BME280;42934;54.294;18.598;2023-02-28T12:17:55;102271.97;;;10.11;41.97
57048;BME280;42934;54.294;18.598;2023-02-28T12:20:35;102279.72;;;10.37;43.83
57048;BME280;42934;54.294;18.598;2023-02-28T12:23:25;102278.69;;;10.66;43.16
57048;BME280;42934;54.294;18.598;2023-02-28T12:26:10;102273.38;;;10.77;42.54
57048;BME280;42934;54.294;18.598;2023-02-28T12:28:49;102273.22;;;10.94;41.77
57048;BME280;42934;54.294;18.598;2023-02-28T12:31:23;102271.44;;;10.96;40.88
57048;BME280;42934;54.294;18.598;2023-02-28T12:33:56;102273.22;;;10.95;40.79
57048;BME280;42934;54.294;18.598;2023-02-28T12:36:28;102279.97;;;11.22;41.43
57048;BME280;42934;54.294;18.598;2023-02-28T12:39:02;102273.75;;;11.31;39.55
57048;BME280;42934;54.294;18.598;2023-02-28T12:41:40;102283.56;;;11.15;40.76
57048;BME280;42934;54.294;18.598;2023-02-28T12:44:14;102274.88;;;11.02;40.78
57048;BME280;42934;54.294;18.598;2023-02-28T12:46:49;102266.31;;;10.80;39.63
57048;BME280;42934;54.294;18.598;2023-02-28T12:49:23;102267.28;;;10.68;40.38
57048;BME280;42934;54.294;18.598;2023-02-28T12:51:54;102266.59;;;10.37;38.38
57048;BME280;42934;54.294;18.598;2023-02-28T12:54:28;102272.66;;;10.49;40.81
57048;BME280;42934;54.294;18.598;2023-02-28T12:57:06;102262.16;;;10.52;40.90
57048;BME280;42934;54.294;18.598;2023-02-28T12:59:41;102264.00;;;10.36;41.67
57048;BME280;42934;54.294;18.598;2023-02-28T13:05:38;102260.63;;;10.09;39.61
57048;BME280;42934;54.294;18.598;2023-02-28T13:08:36;102264.16;;;9.97;40.50
57048;BME280;42934;54.294;18.598;2023-02-28T13:11:24;102260.59;;;10.08;41.17
57048;BME280;42934;54.294;18.598;2023-02-28T13:14:01;102268.50;;;10.05;41.09
57048;BME280;42934;54.294;18.598;2023-02-28T13:16:57;102266.78;;;10.00;42.21
57048;BME280;42934;54.294;18.598;2023-02-28T13:19:30;102253.75;;;9.74;39.95
57048;BME280;42934;54.294;18.598;2023-02-28T13:22:00;102263.34;;;9.83;42.26
57048;BME280;42934;54.294;18.598;2023-02-28T13:24:45;102254.63;;;9.70;42.09
57048;BME280;42934;54.294;18.598;2023-02-28T13:27:35;102252.03;;;9.63;42.76
57048;BME280;42934;54.294;18.598;2023-02-28T13:33:32;102246.84;;;9.50;43.56
57048;BME280;42934;54.294;18.598;2023-02-28T13:36:10;102247.69;;;9.52;43.86